Kota Waris — S6RJ — position and weather

sailwx.info

Track history (hours):
 
Tides and Currents Weather Stations Pressure Air Temp Water Temp Dewpoint Dewpoint Depression Visibility Wind Speed Wind Dir Waves Ship Positions

Kota Waris

Last reported at 2014-Jul-28 22:21 UTC. Time now 2014-Jul-30 17:17 UTC.
Position N 01°16' E 103°44'.

Length 185 m; draft 8.7 m.

Type: Ship (hazmat cat A). MMSI: 564482000.

Date/timePositionNaut miles runAvg speedWind from/ knotsBaromVisibWave heightAir tempDewpointWater temp
2014-Jul-28 22:21N 01°16' E 103°44'2 3.1
2014-Jul-28 21:33N 01°17' E 103°46'0 0.0
2014-Jul-28 20:31N 01°17' E 103°46'0 0.0
2014-Jul-28 17:28N 01°17' E 103°46'0 0.0
2014-Jul-28 16:22N 01°17' E 103°46'0 0.0
2014-Jul-28 15:31N 01°17' E 103°46'0 0.0
2014-Jul-28 14:28N 01°17' E 103°46'0 0.0
2014-Jul-28 13:13N 01°17' E 103°46'0 0.0
2014-Jul-28 12:16N 01°17' E 103°46'0 0.0
2014-Jul-28 11:31N 01°17' E 103°46'0 0.0
2014-Jul-28 10:16N 01°17' E 103°46'0 0.0
2014-Jul-28 08:22N 01°17' E 103°46'0 0.2
2014-Jul-28 06:33N 01°17' E 103°46'5 4.5
2014-Jul-28 05:33N 01°13' E 103°48'4 4.2
2014-Jul-28 04:31N 01°15' E 103°52'0 0.0
2014-Jul-28 03:31N 01°15' E 103°52'0 0.0
2014-Jul-28 02:31N 01°15' E 103°52'0 0.0
2014-Jul-28 01:28N 01°15' E 103°52'0 0.0
2014-Jul-28 00:31N 01°15' E 103°52'0 0.0
2014-Jul-27 23:28N 01°15' E 103°52'0 0.1
2014-Jul-27 22:31N 01°15' E 103°52'0 0.0
2014-Jul-27 21:31N 01°15' E 103°52'0 0.1
2014-Jul-27 20:31N 01°15' E 103°52'0 0.1
2014-Jul-27 19:31N 01°15' E 103°52'0 0.1
2014-Jul-27 18:31N 01°15' E 103°52'0 0.0
2014-Jul-27 17:31N 01°15' E 103°52'0 0.1
2014-Jul-27 16:28N 01°15' E 103°52'0 0.1
2014-Jul-27 15:28N 01°15' E 103°52'0 0.0
2014-Jul-27 14:31N 01°15' E 103°52'0 0.1
2014-Jul-27 13:31N 01°15' E 103°52'0 0.1
2014-Jul-27 12:31N 01°15' E 103°52'0 0.1
2014-Jul-27 11:31N 01°15' E 103°52'0 0.1
2014-Jul-27 10:31N 01°15' E 103°52'0 0.0
2014-Jul-27 09:31N 01°15' E 103°52'0 0.1
2014-Jul-27 08:34N 01°15' E 103°52'6 6.3
2014-Jul-27 07:33N 01°15' E 103°46'2 2.2
2014-Jul-27 06:33N 01°17' E 103°46'0 0.0
2014-Jul-27 04:24N 01°17' E 103°46'0 0.0
2014-Jul-27 03:33N 01°17' E 103°46'0 0.0
2014-Jul-27 01:15N 01°17' E 103°46'0 0.0
2014-Jul-26 21:24N 01°17' E 103°46'0 0.0
2014-Jul-26 17:12N 01°17' E 103°46'0 0.0
2014-Jul-26 16:18N 01°17' E 103°46'1 0.1
2014-Jul-26 08:33N 01°17' E 103°45'4 4.2
2014-Jul-26 07:33N 01°14' E 103°47'6 6.4
2014-Jul-26 06:32N 01°16' E 103°54'0 0.0
2014-Jul-26 05:32N 01°16' E 103°54'0 0.0
2014-Jul-26 04:32N 01°16' E 103°54'0 0.0
2014-Jul-26 03:30N 01°16' E 103°54'0 0.1
2014-Jul-26 02:32N 01°16' E 103°53'0 0.0
2014-Jul-26 01:32N 01°16' E 103°53'0 0.0
2014-Jul-26 00:32N 01°16' E 103°53'0 0.0
2014-Jul-25 23:33N 01°16' E 103°53'0 0.1
2014-Jul-25 22:32N 01°16' E 103°53'0 0.0
2014-Jul-25 21:33N 01°16' E 103°53'0 0.1
2014-Jul-25 20:33N 01°16' E 103°54'0 0.1
2014-Jul-25 19:30N 01°16' E 103°54'0 0.1
2014-Jul-25 18:33N 01°16' E 103°54'0 0.0
2014-Jul-25 17:33N 01°16' E 103°54'0 0.0
2014-Jul-25 16:32N 01°16' E 103°54'0 0.0
2014-Jul-25 15:33N 01°16' E 103°54'0 0.1
2014-Jul-25 14:33N 01°16' E 103°54'0 0.1
2014-Jul-25 13:32N 01°16' E 103°53'0 0.1
2014-Jul-25 12:33N 01°16' E 103°53'0 0.0
2014-Jul-25 11:33N 01°16' E 103°53'0 0.0
2014-Jul-25 10:24N 01°16' E 103°53'0 0.1
2014-Jul-25 09:32N 01°16' E 103°54'0 0.0
2014-Jul-25 08:33N 01°16' E 103°54'0 0.1
2014-Jul-25 07:26N 01°16' E 103°54'0 0.1
2014-Jul-25 06:33N 01°16' E 103°54'0 0.0
2014-Jul-25 05:33N 01°16' E 103°54'0 0.1
2014-Jul-25 04:32N 01°16' E 103°54'0 0.0
2014-Jul-25 03:33N 01°16' E 103°54'0 0.1
2014-Jul-25 02:30N 01°16' E 103°53'0 0.0
2014-Jul-25 01:17N 01°16' E 103°53'0 0.0
2014-Jul-25 00:32N 01°16' E 103°53'0 0.0
2014-Jul-24 23:32N 01°16' E 103°53'0 0.0
2014-Jul-24 22:29N 01°16' E 103°53'0 0.0
2014-Jul-24 21:32N 01°16' E 103°53'0 0.1
2014-Jul-24 20:33N 01°16' E 103°54'0 0.1
2014-Jul-24 19:33N 01°16' E 103°54'0 0.1
2014-Jul-24 18:32N 01°16' E 103°54'0 0.1
2014-Jul-24 17:33N 01°16' E 103°54'0 0.0
2014-Jul-24 16:32N 01°16' E 103°54'0 0.0
2014-Jul-24 15:32N 01°16' E 103°54'0 0.0
2014-Jul-24 14:33N 01°16' E 103°54'0 0.1
2014-Jul-24 13:32N 01°16' E 103°54'0 0.1
2014-Jul-24 12:33N 01°16' E 103°53'0 0.0
2014-Jul-24 11:32N 01°16' E 103°53'0 0.0
2014-Jul-24 10:32N 01°16' E 103°53'0 0.0
2014-Jul-24 09:23N 01°16' E 103°53'0 0.0
2014-Jul-24 08:33N 01°16' E 103°53'0 0.1
2014-Jul-24 07:32N 01°16' E 103°53'0 0.1
2014-Jul-24 06:32N 01°16' E 103°54'0 0.0
2014-Jul-24 05:30N 01°16' E 103°54'0 0.0
2014-Jul-24 04:32N 01°16' E 103°54'0 0.1
2014-Jul-24 03:30N 01°16' E 103°53'0 0.0
2014-Jul-24 02:33N 01°16' E 103°53'0 0.0
2014-Jul-24 01:32N 01°16' E 103°53'0 0.1
2014-Jul-24 00:29N 01°16' E 103°54'0 0.1
2014-Jul-23 23:33N 01°16' E 103°53'0 0.0
2014-Jul-23 22:33N 01°16' E 103°53'0 0.1
2014-Jul-23 21:33N 01°16' E 103°54'0 0.0
2014-Jul-23 20:30N 01°16' E 103°54'0 0.0
2014-Jul-23 19:33N 01°16' E 103°54'0 0.1
2014-Jul-23 18:33N 01°16' E 103°54'0 0.1
2014-Jul-23 17:32N 01°16' E 103°54'0 0.0
2014-Jul-23 16:33N 01°16' E 103°54'0 0.1
2014-Jul-23 15:32N 01°16' E 103°54'0 0.0
2014-Jul-23 14:32N 01°16' E 103°54'0 0.1
2014-Jul-23 13:32N 01°16' E 103°54'0 0.5
2014-Jul-23 12:33N 01°15' E 103°54'5 4.5
2014-Jul-23 11:33N 01°15' E 103°58'  
2014-Jul-19 07:04N 22°03' E 113°51'5 9.1
2014-Jul-19 06:32N 22°08' E 113°51'1212.6
2014-Jul-19 05:33N 22°20' E 113°48'1410.9
2014-Jul-19 04:18N 22°33' E 113°44'5 7.0
2014-Jul-19 03:32N 22°38' E 113°41'0 0.0
2014-Jul-18 23:29N 22°38' E 113°41'0 0.0
2014-Jul-18 22:29N 22°38' E 113°41'  
Track history (hours):
 
Tides and Currents Weather Stations Pressure Air Temp Water Temp Dewpoint Dewpoint Depression Visibility Wind Speed Wind Dir Waves Ship Positions

Kota Waris

Last reported at 2014-Jul-28 22:21 UTC. Time now 2014-Jul-30 17:17 UTC.
Position N 01°16' E 103°44'.

Length 185 m; draft 8.7 m.

Type: Ship (hazmat cat A). MMSI: 564482000.

Date/timePositionNaut miles runAvg speedWind from/ knotsBaromVisibWave heightAir tempDewpointWater temp
2014-Jul-28 22:21N 01°16' E 103°44'2 3.1
2014-Jul-28 21:33N 01°17' E 103°46'0 0.0
2014-Jul-28 20:31N 01°17' E 103°46'0 0.0
2014-Jul-28 17:28N 01°17' E 103°46'0 0.0
2014-Jul-28 16:22N 01°17' E 103°46'0 0.0
2014-Jul-28 15:31N 01°17' E 103°46'0 0.0
2014-Jul-28 14:28N 01°17' E 103°46'0 0.0
2014-Jul-28 13:13N 01°17' E 103°46'0 0.0
2014-Jul-28 12:16N 01°17' E 103°46'0 0.0
2014-Jul-28 11:31N 01°17' E 103°46'0 0.0
2014-Jul-28 10:16N 01°17' E 103°46'0 0.0
2014-Jul-28 08:22N 01°17' E 103°46'0 0.2
2014-Jul-28 06:33N 01°17' E 103°46'5 4.5
2014-Jul-28 05:33N 01°13' E 103°48'4 4.2
2014-Jul-28 04:31N 01°15' E 103°52'0 0.0
2014-Jul-28 03:31N 01°15' E 103°52'0 0.0
2014-Jul-28 02:31N 01°15' E 103°52'0 0.0
2014-Jul-28 01:28N 01°15' E 103°52'0 0.0
2014-Jul-28 00:31N 01°15' E 103°52'0 0.0
2014-Jul-27 23:28N 01°15' E 103°52'0 0.1
2014-Jul-27 22:31N 01°15' E 103°52'0 0.0
2014-Jul-27 21:31N 01°15' E 103°52'0 0.1
2014-Jul-27 20:31N 01°15' E 103°52'0 0.1
2014-Jul-27 19:31N 01°15' E 103°52'0 0.1
2014-Jul-27 18:31N 01°15' E 103°52'0 0.0
2014-Jul-27 17:31N 01°15' E 103°52'0 0.1
2014-Jul-27 16:28N 01°15' E 103°52'0 0.1
2014-Jul-27 15:28N 01°15' E 103°52'0 0.0
2014-Jul-27 14:31N 01°15' E 103°52'0 0.1
2014-Jul-27 13:31N 01°15' E 103°52'0 0.1
2014-Jul-27 12:31N 01°15' E 103°52'0 0.1
2014-Jul-27 11:31N 01°15' E 103°52'0 0.1
2014-Jul-27 10:31N 01°15' E 103°52'0 0.0
2014-Jul-27 09:31N 01°15' E 103°52'0 0.1
2014-Jul-27 08:34N 01°15' E 103°52'6 6.3
2014-Jul-27 07:33N 01°15' E 103°46'2 2.2
2014-Jul-27 06:33N 01°17' E 103°46'0 0.0
2014-Jul-27 04:24N 01°17' E 103°46'0 0.0
2014-Jul-27 03:33N 01°17' E 103°46'0 0.0
2014-Jul-27 01:15N 01°17' E 103°46'0 0.0
2014-Jul-26 21:24N 01°17' E 103°46'0 0.0
2014-Jul-26 17:12N 01°17' E 103°46'0 0.0
2014-Jul-26 16:18N 01°17' E 103°46'1 0.1
2014-Jul-26 08:33N 01°17' E 103°45'4 4.2
2014-Jul-26 07:33N 01°14' E 103°47'6 6.4
2014-Jul-26 06:32N 01°16' E 103°54'0 0.0
2014-Jul-26 05:32N 01°16' E 103°54'0 0.0
2014-Jul-26 04:32N 01°16' E 103°54'0 0.0
2014-Jul-26 03:30N 01°16' E 103°54'0 0.1
2014-Jul-26 02:32N 01°16' E 103°53'0 0.0
2014-Jul-26 01:32N 01°16' E 103°53'0 0.0
2014-Jul-26 00:32N 01°16' E 103°53'0 0.0
2014-Jul-25 23:33N 01°16' E 103°53'0 0.1
2014-Jul-25 22:32N 01°16' E 103°53'0 0.0
2014-Jul-25 21:33N 01°16' E 103°53'0 0.1
2014-Jul-25 20:33N 01°16' E 103°54'0 0.1
2014-Jul-25 19:30N 01°16' E 103°54'0 0.1
2014-Jul-25 18:33N 01°16' E 103°54'0 0.0
2014-Jul-25 17:33N 01°16' E 103°54'0 0.0
2014-Jul-25 16:32N 01°16' E 103°54'0 0.0
2014-Jul-25 15:33N 01°16' E 103°54'0 0.1
2014-Jul-25 14:33N 01°16' E 103°54'0 0.1
2014-Jul-25 13:32N 01°16' E 103°53'0 0.1
2014-Jul-25 12:33N 01°16' E 103°53'0 0.0
2014-Jul-25 11:33N 01°16' E 103°53'0 0.0
2014-Jul-25 10:24N 01°16' E 103°53'0 0.1
2014-Jul-25 09:32N 01°16' E 103°54'0 0.0
2014-Jul-25 08:33N 01°16' E 103°54'0 0.1
2014-Jul-25 07:26N 01°16' E 103°54'0 0.1
2014-Jul-25 06:33N 01°16' E 103°54'0 0.0
2014-Jul-25 05:33N 01°16' E 103°54'0 0.1
2014-Jul-25 04:32N 01°16' E 103°54'0 0.0
2014-Jul-25 03:33N 01°16' E 103°54'0 0.1
2014-Jul-25 02:30N 01°16' E 103°53'0 0.0
2014-Jul-25 01:17N 01°16' E 103°53'0 0.0
2014-Jul-25 00:32N 01°16' E 103°53'0 0.0
2014-Jul-24 23:32N 01°16' E 103°53'0 0.0
2014-Jul-24 22:29N 01°16' E 103°53'0 0.0
2014-Jul-24 21:32N 01°16' E 103°53'0 0.1
2014-Jul-24 20:33N 01°16' E 103°54'0 0.1
2014-Jul-24 19:33N 01°16' E 103°54'0 0.1
2014-Jul-24 18:32N 01°16' E 103°54'0 0.1
2014-Jul-24 17:33N 01°16' E 103°54'0 0.0
2014-Jul-24 16:32N 01°16' E 103°54'0 0.0
2014-Jul-24 15:32N 01°16' E 103°54'0 0.0
2014-Jul-24 14:33N 01°16' E 103°54'0 0.1
2014-Jul-24 13:32N 01°16' E 103°54'0 0.1
2014-Jul-24 12:33N 01°16' E 103°53'0 0.0
2014-Jul-24 11:32N 01°16' E 103°53'0 0.0
2014-Jul-24 10:32N 01°16' E 103°53'0 0.0
2014-Jul-24 09:23N 01°16' E 103°53'0 0.0
2014-Jul-24 08:33N 01°16' E 103°53'0 0.1
2014-Jul-24 07:32N 01°16' E 103°53'0 0.1
2014-Jul-24 06:32N 01°16' E 103°54'0 0.0
2014-Jul-24 05:30N 01°16' E 103°54'0 0.0
2014-Jul-24 04:32N 01°16' E 103°54'0 0.1
2014-Jul-24 03:30N 01°16' E 103°53'0 0.0
2014-Jul-24 02:33N 01°16' E 103°53'0 0.0
2014-Jul-24 01:32N 01°16' E 103°53'0 0.1
2014-Jul-24 00:29N 01°16' E 103°54'0 0.1
2014-Jul-23 23:33N 01°16' E 103°53'0 0.0
2014-Jul-23 22:33N 01°16' E 103°53'0 0.1
2014-Jul-23 21:33N 01°16' E 103°54'0 0.0
2014-Jul-23 20:30N 01°16' E 103°54'0 0.0
2014-Jul-23 19:33N 01°16' E 103°54'0 0.1
2014-Jul-23 18:33N 01°16' E 103°54'0 0.1
2014-Jul-23 17:32N 01°16' E 103°54'0 0.0
2014-Jul-23 16:33N 01°16' E 103°54'0 0.1
2014-Jul-23 15:32N 01°16' E 103°54'0 0.0
2014-Jul-23 14:32N 01°16' E 103°54'0 0.1
2014-Jul-23 13:32N 01°16' E 103°54'0 0.5
2014-Jul-23 12:33N 01°15' E 103°54'5 4.5
2014-Jul-23 11:33N 01°15' E 103°58'  
2014-Jul-19 07:04N 22°03' E 113°51'5 9.1
2014-Jul-19 06:32N 22°08' E 113°51'1212.6
2014-Jul-19 05:33N 22°20' E 113°48'1410.9
2014-Jul-19 04:18N 22°33' E 113°44'5 7.0
2014-Jul-19 03:32N 22°38' E 113°41'0 0.0
2014-Jul-18 23:29N 22°38' E 113°41'0 0.0
2014-Jul-18 22:29N 22°38' E 113°41'  

Dump ship's entire track history